CDT,Max TemperatureF,Mean TemperatureF,Min TemperatureF,Max Dew PointF,MeanDew PointF,Min DewpointF,Max Humidity, Mean Humidity, Min Humidity, Max Sea Level PressureIn, Mean Sea Level PressureIn, Min Sea Level PressureIn, Max VisibilityMiles, Mean VisibilityMiles, Min VisibilityMiles, Max Wind SpeedMPH, Mean Wind SpeedMPH, Max Gust SpeedMPH,PrecipitationIn, CloudCover, Events, WindDirDegrees
2011-9-1,99,85,71,74,70,65,90,64,38,30.02,29.95,29.88,10,8,4,22,8,26,T,1,,93
2011-9-2,92,83,74,72,70,64,93,70,47,29.93,29.88,29.80,10,10,10,26,10,33,T,2,Rain,79
2011-9-3,79,76,72,73,72,68,100,86,71,29.77,29.57,29.49,10,4,2,23,15,35,2.42,8,Rain,31
2011-9-4,82,76,70,75,72,68,100,87,74,29.59,29.45,29.40,10,5,1,29,18,41,2.68,8,Rain,11
2011-9-5,84,74,63,68,58,43,97,61,24,29.94,29.72,29.59,10,10,6,23,12,37,0.04,5,Rain,351
2011-9-6,83,69,54,55,50,44,93,60,26,30.04,29.98,29.93,10,10,10,16,6,22,0.00,0,,348
2011-9-7,85,68,50,55,48,41,96,60,23,30.11,30.06,30.00,10,10,10,14,3,17,0.00,0,,18
2011-9-8,85,69,53,56,51,47,93,60,27,30.11,30.04,29.95,10,10,10,13,3,17,0.00,0,,4
2011-9-9,88,71,54,61,54,47,100,63,26,30.03,29.97,29.91,10,10,8,9,2,13,0.00,0,,157
2011-9-10,89,75,60,64,59,50,90,58,26,30.04,29.99,29.95,10,10,10,14,5,18,0.00,0,,165
2011-9-11,92,78,63,68,63,57,93,63,32,30.10,30.04,29.99,10,10,10,13,6,18,0.00,0,,196
2011-9-12,93,80,67,69,65,61,100,67,33,30.14,30.06,29.96,10,10,6,14,6,18,0.00,0,,183
2011-9-13,95,83,70,74,70,63,100,69,38,30.03,29.97,29.88,10,9,5,12,6,17,0.00,2,,197
2011-9-14,93,83,72,74,70,64,74,70,65,29.96,29.91,29.86,10,9,4,14,5,21,0.00,1,,197
2011-9-15,78,71,64,69,62,58,90,77,64,30.14,30.06,29.93,10,10,10,14,7,21,0.00,4,,35
2011-9-16,83,71,59,60,57,51,93,68,42,30.18,30.12,30.07,10,10,9,10,4,13,0.00,0,,57
2011-9-17,88,74,59,65,59,52,84,58,31,30.14,30.08,30.02,10,10,10,9,4,12,0.00,0,,106
2011-9-18,84,77,69,72,68,65,93,76,58,30.10,30.03,29.97,10,9,6,13,4,16,T,1,Rain,160
2011-9-19,84,75,65,70,65,62,100,76,51,30.04,30.00,29.93,10,9,2,25,4,33,0.45,4,Rain-Thunderstorm,309
2011-9-20,89,77,64,68,65,59,100,70,40,30.00,29.96,29.87,10,5,0,7,1,10,0.00,2,Fog,357
2011-9-21,90,78,65,68,64,60,93,66,38,30.04,29.99,29.96,10,10,5,10,2,13,0.00,1,,26
2011-9-22,90,77,64,70,65,62,100,71,41,30.06,30.01,29.94,10,10,7,12,2,15,0.00,1,,46
2011-9-23,84,73,62,63,62,59,93,70,47,30.10,30.03,29.97,10,10,10,10,5,16,0.00,3,Rain,7
2011-9-24,85,70,55,60,56,52,93,63,32,30.01,29.95,29.86,10,9,2,9,2,13,0.00,0,,162
2011-9-25,90,76,62,73,67,59,93,70,47,29.88,29.81,29.73,10,10,5,18,9,25,0.00,2,,177
2011-9-26,93,84,74,73,70,64,94,67,39,29.88,29.84,29.77,10,10,6,17,7,30,0.00,4,,185
2011-9-27,92,82,71,73,69,65,93,67,41,29.95,29.89,29.83,10,10,8,14,6,20,0.00,3,,205
2011-9-28,93,80,67,73,70,65,94,67,39,29.93,29.87,29.78,10,9,4,17,4,24,0.03,4,Rain-Thunderstorm,91
2011-9-29,94,80,65,70,64,54,93,60,26,29.96,29.89,29.84,10,9,5,13,2,15,0.00,0,,157
2011-9-30,84,69,53,69,47,34,97,57,17,30.09,30.01,29.91,10,10,8,22,7,28,0.00,0,,23